Time;durP1;ratioP1;P1;durP2;ratioP2;P2;SDS_P1;SDS_P2;PMS_P1;PMS_P2;Temp;Humidity;BMP_temperature;BMP_pressure;BME280_temperature;BME280_humidity;BME280_pressure;Samples;Min_cycle;Max_cycle;Signal;HPM_P1;HPM_P2
2022/07/24 04:32:41;;;;;;;;;11.50;11.25;;;;;23.15;54.14;101534.47;4975901;28;45480;-76
2022/07/24 04:35:07;;;;;;;;;14.75;14.75;;;;;23.12;54.20;101531.13;4977316;28;45969;-77
2022/07/24 04:37:32;;;;;;;;;13.50;13.00;;;;;23.07;54.77;101528.78;4977145;28;45564;-76
2022/07/24 04:39:58;;;;;;;;;11.50;11.50;;;;;23.09;54.92;101529.53;4977240;28;45253;-76
2022/07/24 04:42:23;;;;;;;;;10.25;10.25;;;;;23.12;54.77;101533.88;4977177;28;45346;-76
2022/07/24 04:44:49;;;;;;;;;13.75;12.75;;;;;23.10;54.84;101534.00;4977213;28;45414;-76
2022/07/24 04:47:14;;;;;;;;;16.00;15.25;;;;;23.10;54.73;101525.78;4977862;28;45379;-76
2022/07/24 04:49:40;;;;;;;;;16.50;14.25;;;;;23.11;55.15;101523.94;4978145;28;45298;-75
2022/07/24 04:52:05;;;;;;;;;14.75;13.50;;;;;23.14;55.10;101527.25;4977923;28;45334;-77
2022/07/24 04:54:31;;;;;;;;;13.00;13.00;;;;;23.15;55.00;101519.91;4978947;28;46398;-75
2022/07/24 04:56:56;;;;;;;;;12.50;11.25;;;;;23.14;55.04;101521.78;4958825;28;45410;-75
2022/07/24 04:59:21;;;;;;;;;12.00;11.25;;;;;23.11;54.75;101515.72;4959209;28;45235;-75
2022/07/24 05:01:47;;;;;;;;;14.25;14.25;;;;;23.14;54.89;101529.97;4958156;28;46473;-77
2022/07/24 05:04:12;;;;;;;;;14.25;14.25;;;;;23.14;55.05;101519.03;4955527;28;47187;-75
2022/07/24 05:06:38;;;;;;;;;13.50;11.50;;;;;23.11;55.01;101515.72;4958047;28;45444;-75
2022/07/24 05:09:03;;;;;;;;;11.75;11.75;;;;;23.15;54.54;101519.91;4959447;28;45950;-76
2022/07/24 05:11:29;;;;;;;;;11.25;11.25;;;;;23.14;54.83;101519.03;4976304;28;45361;-75
2022/07/24 05:13:55;;;;;;;;;12.75;12.25;;;;;23.12;54.64;101512.00;4975044;28;47141;-76
2022/07/24 05:16:20;;;;;;;;;11.00;11.00;;;;;23.14;54.34;101527.25;4952447;28;45378;-75
2022/07/24 05:18:46;;;;;;;;;10.75;9.75;;;;;23.10;54.85;101520.31;4977209;28;45489;-76
2022/07/24 05:21:11;;;;;;;;;10.00;10.00;;;;;23.10;54.75;101531.25;4956835;28;45499;-75
2022/07/24 05:23:37;;;;;;;;;13.75;13.00;;;;;23.18;54.92;101539.69;4958685;28;47158;-76
2022/07/24 05:26:02;;;;;;;;;11.50;11.50;;;;;23.19;54.70;101529.59;4958882;28;45358;-73
2022/07/24 05:28:28;;;;;;;;;16.25;14.25;;;;;23.19;54.58;101524.13;4976392;28;45418;-75
2022/07/24 05:30:53;;;;;;;;;15.25;11.00;;;;;23.23;54.81;101534.66;4958442;28;45846;-76
2022/07/24 05:33:18;;;;;;;;;12.25;12.25;;;;;23.21;54.52;101517.53;4958382;28;45329;-76
2022/07/24 05:35:44;;;;;;;;;12.75;12.75;;;;;23.18;54.65;101522.41;4976113;28;45363;-75
2022/07/24 05:38:10;;;;;;;;;13.00;12.75;;;;;23.24;54.66;101525.47;4958456;28;45378;-75
2022/07/24 05:40:35;;;;;;;;;11.25;11.25;;;;;23.20;54.83;101517.66;4959220;28;47250;-76
2022/07/24 05:43:01;;;;;;;;;12.00;12.00;;;;;23.27;54.31;101524.34;4958483;28;48284;-75
2022/07/24 05:45:26;;;;;;;;;13.50;11.75;;;;;23.29;54.39;101519.59;4958564;28;46100;-75
2022/07/24 05:47:52;;;;;;;;;13.25;13.00;;;;;23.35;54.12;101519.94;4975835;28;45626;-76
2022/07/24 05:50:17;;;;;;;;;12.00;12.00;;;;;23.35;54.19;101519.06;4958383;28;46070;-75
2022/07/24 05:52:43;;;;;;;;;11.25;11.25;;;;;23.44;54.02;101528.34;4957039;28;46989;-76
2022/07/24 05:55:09;;;;;;;;;12.00;12.00;;;;;23.45;53.98;101520.00;4975741;28;45495;-75
2022/07/24 05:57:34;;;;;;;;;12.25;12.25;;;;;23.46;53.60;101519.00;4975780;28;45369;-75
2022/07/24 06:00:00;;;;;;;;;13.00;10.50;;;;;23.56;53.87;101535.53;4957862;28;46503;-75
2022/07/24 06:02:25;;;;;;;;;14.25;13.50;;;;;23.57;53.42;101527.16;4975468;28;45324;-73
2022/07/24 06:04:51;;;;;;;;;12.50;11.00;;;;;23.63;53.17;101526.63;4959269;28;45417;-76
2022/07/24 06:07:17;;;;;;;;;16.25;15.00;;;;;23.62;52.75;101521.28;4959743;28;45502;-73
2022/07/24 06:09:42;;;;;;;;;11.75;10.75;;;;;23.67;53.31;101521.72;4973939;28;47503;-72
2022/07/24 06:12:08;;;;;;;;;11.00;9.50;;;;;23.71;52.96;101524.06;4957641;28;47174;-74
2022/07/24 06:14:34;;;;;;;;;12.50;12.50;;;;;23.79;53.43;101528.00;4957912;28;45637;-72
2022/07/24 06:17:00;;;;;;;;;13.50;13.50;;;;;23.79;53.20;101514.31;4957529;28;45358;-75
2022/07/24 06:19:26;;;;;;;;;13.00;13.00;;;;;23.80;52.77;101514.16;4973345;28;45491;-74
2022/07/24 06:21:51;;;;;;;;;11.25;10.00;;;;;23.89;53.30;101526.19;4945280;28;47266;-71
2022/07/24 06:24:17;;;;;;;;;10.75;10.75;;;;;23.91;53.19;101521.41;4975417;28;45248;-74
2022/07/24 06:26:42;;;;;;;;;16.25;14.75;;;;;23.90;52.89;101519.69;4974932;28;45941;-73
2022/07/24 06:29:07;;;;;;;;;13.75;11.00;;;;;23.87;52.79;101517.22;4957901;28;46113;-74
2022/07/24 06:31:33;;;;;;;;;14.25;12.25;;;;;23.86;53.42;101508.13;4956495;28;47165;-76
2022/07/24 06:33:58;;;;;;;;;10.50;10.50;;;;;23.91;53.12;101511.31;4973198;28;45333;-75
2022/07/24 06:36:24;;;;;;;;;15.25;14.00;;;;;23.96;53.03;101511.78;4955455;28;46043;-73
2022/07/24 06:38:49;;;;;;;;;16.00;14.75;;;;;23.99;53.16;101508.75;4956149;28;46821;-75
2022/07/24 06:41:15;;;;;;;;;14.50;13.00;;;;;24.00;53.07;101504.16;4957003;28;45666;-74
2022/07/24 06:43:40;;;;;;;;;18.50;17.00;;;;;24.02;53.05;101513.09;4957119;28;45562;-74
2022/07/24 06:46:06;;;;;;;;;18.00;16.00;;;;;24.02;53.36;101505.75;4957476;28;45436;-74
2022/07/24 06:48:32;;;;;;;;;14.00;14.00;;;;;24.06;53.25;101504.47;4975065;28;45542;-75
2022/07/24 06:50:58;;;;;;;;;18.00;15.00;;;;;24.05;53.35;101496.41;4957215;28;45646;-73
2022/07/24 06:53:24;;;;;;;;;19.50;15.75;;;;;24.07;53.61;101506.19;4974813;28;45235;-72
2022/07/24 06:55:53;;;;;;;;;17.25;16.25;;;;;23.99;53.91;101503.28;4957005;28;45433;-73
2022/07/24 06:58:19;;;;;;;;;21.75;16.50;;;;;23.98;53.55;101501.56;4956639;28;45370;-75
2022/07/24 07:00:44;;;;;;;;;17.00;17.00;;;;;23.98;53.60;101504.31;4956891;28;47944;-73
2022/07/24 07:03:10;;;;;;;;;16.50;14.00;;;;;23.94;53.99;101500.09;4958400;28;45318;-74
2022/07/24 07:05:35;;;;;;;;;21.00;16.75;;;;;24.01;53.85;101505.88;4960646;28;45971;-74
2022/07/24 07:08:01;;;;;;;;;22.00;19.75;;;;;23.92;54.12;101495.75;4960356;28;46023;-74
2022/07/24 07:10:26;;;;;;;;;18.75;13.25;;;;;23.94;54.01;101504.72;4960211;28;48243;-73
2022/07/24 07:12:52;;;;;;;;;17.75;17.75;;;;;23.89;54.24;101496.06;4960367;28;45437;-74
2022/07/24 07:15:18;;;;;;;;;23.25;21.00;;;;;23.95;53.84;101503.72;4960056;28;45387;-73
2022/07/24 07:17:44;;;;;;;;;19.50;19.25;;;;;23.97;53.86;101508.06;4977706;28;45535;-75
2022/07/24 07:20:10;;;;;;;;;17.25;17.00;;;;;23.97;54.55;101501.69;4959802;28;47999;-75
2022/07/24 07:22:36;;;;;;;;;20.00;14.50;;;;;24.04;54.31;101511.09;4975561;28;45494;-74
2022/07/24 07:25:01;;;;;;;;;18.00;16.00;;;;;24.05;54.30;101499.13;4959933;28;45257;-75
2022/07/24 07:27:27;;;;;;;;;17.00;16.00;;;;;24.13;53.86;101511.13;4960184;28;46141;-76
2022/07/24 07:29:52;;;;;;;;;21.00;15.50;;;;;24.17;54.11;101508.09;4959764;28;47079;-74
2022/07/24 07:32:18;;;;;;;;;20.00;17.25;;;;;24.22;54.08;101508.59;4976349;28;45517;-77
2022/07/24 07:34:43;;;;;;;;;17.50;17.50;;;;;24.18;53.99;101505.22;4947417;28;45324;-75
2022/07/24 07:37:09;;;;;;;;;17.25;17.25;;;;;24.28;53.88;101502.53;4960226;28;46526;-75
2022/07/24 07:39:34;;;;;;;;;18.75;18.75;;;;;24.34;54.17;101499.22;4977508;28;46224;-74
2022/07/24 07:41:59;;;;;;;;;16.25;16.25;;;;;24.43;53.95;101512.09;4959917;28;45379;-75
2022/07/24 07:44:25;;;;;;;;;23.00;21.50;;;;;24.45;54.06;101502.72;4959732;28;45347;-74
2022/07/24 07:46:50;;;;;;;;;19.00;19.00;;;;;24.49;53.55;101495.97;4959779;28;46398;-75
2022/07/24 07:49:15;;;;;;;;;16.50;16.50;;;;;24.56;53.61;101501.75;4959690;28;45409;-75
2022/07/24 07:51:41;;;;;;;;;20.00;19.25;;;;;24.52;53.77;101495.66;4959391;28;45475;-74
2022/07/24 07:54:06;;;;;;;;;19.00;16.50;;;;;24.61;53.59;101501.31;4959769;28;45350;-75
2022/07/24 07:56:32;;;;;;;;;21.25;20.50;;;;;24.58;53.03;101496.13;4977018;28;45301;-75
2022/07/24 07:58:58;;;;;;;;;21.00;20.00;;;;;24.51;53.52;101482.97;4977097;28;45638;-75
2022/07/24 08:01:23;;;;;;;;;21.75;19.00;;;;;24.55;53.44;101486.31;4959458;28;45636;-75
2022/07/24 08:03:49;;;;;;;;;19.50;18.25;;;;;24.62;53.53;101492.94;4959676;28;45504;-74
2022/07/24 08:06:14;;;;;;;;;20.50;17.25;;;;;24.61;53.52;101471.16;4959493;28;45998;-74
2022/07/24 08:08:40;;;;;;;;;23.75;18.75;;;;;24.68;53.50;101484.13;4959365;28;47991;-75
2022/07/24 08:11:05;;;;;;;;;20.75;18.75;;;;;24.64;53.22;101479.97;4976812;28;45307;-73
2022/07/24 08:13:31;;;;;;;;;18.00;17.00;;;;;24.71;53.66;101483.84;4975876;28;45442;-74
2022/07/24 08:15:56;;;;;;;;;18.00;17.25;;;;;24.74;53.01;101469.88;4958245;28;45281;-74
2022/07/24 08:18:22;;;;;;;;;18.50;18.50;;;;;24.77;52.85;101461.34;4977016;28;45989;-77
2022/07/24 08:20:48;;;;;;;;;17.50;16.75;;;;;24.87;52.43;101469.56;4959305;28;45256;-72
2022/07/24 08:23:13;;;;;;;;;15.25;15.25;;;;;24.92;52.49;101470.03;4958048;28;45500;-74
2022/07/24 08:25:39;;;;;;;;;15.00;15.00;;;;;24.95;52.11;101456.00;4959178;28;45578;-74
2022/07/24 08:28:04;;;;;;;;;18.25;15.75;;;;;24.95;52.05;101460.63;4976876;28;46171;-74
2022/07/24 08:30:30;;;;;;;;;16.25;15.75;;;;;25.01;51.87;101468.31;4959281;28;45334;-74
2022/07/24 08:32:55;;;;;;;;;19.00;13.50;;;;;25.04;51.99;101463.38;4976601;28;45420;-75
2022/07/24 08:35:22;;;;;;;;;17.00;17.00;;;;;25.05;51.57;101466.97;4976769;28;47091;-73
2022/07/24 08:37:47;;;;;;;;;19.50;17.75;;;;;25.17;51.71;101465.81;4959211;28;46437;-76
2022/07/24 08:40:14;;;;;;;;;18.50;18.00;;;;;25.19;51.01;101461.03;4959010;28;45348;-75
2022/07/24 08:42:40;;;;;;;;;18.75;16.50;;;;;25.25;50.75;101457.72;4975288;28;45454;-75
2022/07/24 08:45:07;;;;;;;;;14.50;13.50;;;;;25.28;50.33;101457.41;4958892;28;46328;-74
2022/07/24 08:47:32;;;;;;;;;17.50;16.75;;;;;25.34;51.05;101461.44;4958729;28;47652;-75
2022/07/24 08:49:59;;;;;;;;;13.00;13.00;;;;;25.41;50.54;101454.34;4976449;28;45396;-75
2022/07/24 08:52:25;;;;;;;;;13.50;13.00;;;;;25.51;50.48;101452.44;4959151;28;45415;-75
2022/07/24 08:54:52;;;;;;;;;16.75;14.25;;;;;25.56;49.50;101448.22;4976212;28;45341;-73
2022/07/24 08:57:18;;;;;;;;;17.25;16.50;;;;;25.62;49.79;101453.13;4976110;28;46145;-73
2022/07/24 08:59:43;;;;;;;;;12.00;12.00;;;;;25.65;49.22;101443.75;4956290;28;46266;-72
2022/07/24 09:02:09;;;;;;;;;12.75;12.75;;;;;25.68;49.32;101432.47;4958907;28;45566;-71
2022/07/24 09:04:44;;;;;;;;;14.00;14.00;;;;;25.75;47.37;101439.06;4976645;28;45345;-72
2022/07/24 09:07:12;;;;;;;;;11.50;11.25;;;;;25.79;47.29;101436.88;4958425;28;47572;-70
2022/07/24 09:09:40;;;;;;;;;14.00;13.00;;;;;25.79;47.50;101423.13;4976148;28;45341;-70
2022/07/24 09:12:14;;;;;;;;;15.00;14.75;;;;;25.86;46.86;101424.28;4958819;28;45435;-71
2022/07/24 09:14:42;;;;;;;;;13.75;13.25;;;;;25.90;47.42;101420.19;4958069;28;45558;-72
2022/07/24 09:17:09;;;;;;;;;12.50;12.50;;;;;25.97;46.89;101430.41;4975717;28;45394;-70
2022/07/24 09:19:51;;;;;;;;;14.00;12.25;;;;;26.03;45.88;101422.59;4975609;28;45400;-69
2022/07/24 09:22:37;;;;;;;;;13.50;12.50;;;;;26.09;46.31;101414.59;4967062;28;45449;-70
2022/07/24 09:25:23;;;;;;;;;15.25;12.50;;;;;26.06;44.69;101403.91;4975574;28;45417;-68
2022/07/24 09:27:51;;;;;;;;;12.50;10.25;;;;;26.20;44.63;101419.00;4975467;28;46406;-72
2022/07/24 09:30:31;;;;;;;;;16.00;13.25;;;;;26.19;44.82;101409.91;4958213;28;45988;-70
2022/07/24 09:33:04;;;;;;;;;14.00;12.00;;;;;26.23;44.66;101397.56;4975599;28;45350;-69
2022/07/24 09:35:31;;;;;;;;;9.75;9.75;;;;;26.30;43.52;101401.44;4957946;28;45496;-69
2022/07/24 09:37:58;;;;;;;;;13.50;11.50;;;;;26.33;44.02;101408.53;4971465;28;48409;-68
2022/07/24 09:40:38;;;;;;;;;14.00;13.00;;;;;26.36;44.02;101392.59;4975388;28;45373;-69
2022/07/24 09:43:26;;;;;;;;;11.00;11.00;;;;;26.43;43.53;101400.19;4975711;28;45487;-70
2022/07/24 09:46:02;;;;;;;;;12.25;10.50;;;;;26.34;43.55;101360.78;4975353;28;45443;-72
2022/07/24 09:48:31;;;;;;;;;11.50;11.00;;;;;26.52;44.24;101375.38;4975685;28;46190;-69
2022/07/24 09:51:02;;;;;;;;;11.75;11.75;;;;;26.57;43.38;101378.50;4975364;28;45274;-74
2022/07/24 09:53:31;;;;;;;;;12.75;10.50;;;;;26.52;43.46;101355.25;4975667;28;45340;-73
2022/07/24 09:56:11;;;;;;;;;9.50;9.50;;;;;26.67;44.05;101368.28;4968734;28;45656;-73
2022/07/24 09:58:39;;;;;;;;;16.25;12.75;;;;;26.79;44.29;101371.66;4970170;28;46219;-68
2022/07/24 10:01:07;;;;;;;;;9.00;9.00;;;;;26.85;42.89;101365.50;4975519;28;45454;-75
2022/07/24 10:03:35;;;;;;;;;8.75;8.75;;;;;26.80;42.76;101364.22;4975396;28;45379;-68
2022/07/24 10:06:03;;;;;;;;;15.00;11.00;;;;;26.90;41.77;101368.63;4957572;28;46320;-74
2022/07/24 10:08:31;;;;;;;;;8.50;8.25;;;;;26.95;42.25;101377.31;4974801;28;46515;-76
2022/07/24 10:10:57;;;;;;;;;10.00;10.00;;;;;26.96;42.18;101372.66;4957321;28;45260;-71
2022/07/24 10:13:27;;;;;;;;;10.25;8.50;;;;;26.98;40.35;101362.34;4975064;28;45641;-70
2022/07/24 10:16:11;;;;;;;;;8.75;8.00;;;;;27.11;41.80;101371.03;4957286;28;45359;-71
2022/07/24 10:19:00;;;;;;;;;6.00;6.00;;;;;27.18;40.80;101368.50;4974889;28;45428;-74
2022/07/24 10:21:29;;;;;;;;;11.25;9.00;;;;;27.23;40.35;101366.97;4973973;28;45246;-73
2022/07/24 10:24:06;;;;;;;;;6.50;6.50;;;;;27.28;39.75;101358.25;4957929;28;45393;-72
2022/07/24 10:26:36;;;;;;;;;8.00;8.00;;;;;27.31;38.78;101368.91;4957628;28;46017;-77
2022/07/24 10:29:10;;;;;;;;;7.00;7.00;;;;;27.34;39.22;101355.69;4975249;28;45239;-73
2022/07/24 10:31:38;;;;;;;;;8.00;8.00;;;;;27.24;40.67;101338.41;4957949;28;45556;-74
2022/07/24 10:34:10;;;;;;;;;11.25;10.00;;;;;27.42;41.00;101363.13;4977791;28;45241;-73
2022/07/24 10:36:44;;;;;;;;;13.50;8.75;;;;;27.46;40.22;101359.03;4977492;28;45376;-72
2022/07/24 10:39:24;;;;;;;;;10.00;7.75;;;;;27.49;39.56;101353.16;4976126;28;45324;-75
2022/07/24 10:42:03;;;;;;;;;8.00;8.00;;;;;27.48;38.99;101344.03;4957806;28;45324;-73
2022/07/24 10:44:28;;;;;;;;;11.75;11.75;;;;;27.54;39.96;101349.97;4957245;28;45515;-72
2022/07/24 10:46:58;;;;;;;;;8.50;8.50;;;;;27.62;39.43;101356.38;4957202;28;45400;-74
2022/07/24 10:49:37;;;;;;;;;8.75;8.75;;;;;27.65;39.17;101353.25;4957377;28;48323;-72
2022/07/24 10:52:02;;;;;;;;;11.00;11.00;;;;;27.68;39.90;101338.31;4957050;28;45385;-70
2022/07/24 10:54:28;;;;;;;;;11.00;8.75;;;;;27.77;39.84;101334.53;4974640;28;45558;-71
2022/07/24 10:56:53;;;;;;;;;8.50;8.00;;;;;27.67;38.98;101307.13;4956967;28;46428;-71
2022/07/24 10:59:33;;;;;;;;;9.50;7.75;;;;;27.83;38.34;101318.19;4974833;28;45389;-70
2022/07/24 11:02:29;;;;;;;;;9.75;8.00;;;;;27.85;39.19;101321.66;4974582;28;45254;-74
2022/07/24 11:05:32;;;;;;;;;11.25;8.25;;;;;27.95;38.08;101321.50;4957132;28;45414;-71
2022/07/24 11:08:17;;;;;;;;;10.50;7.75;;;;;28.06;38.53;101318.44;4974750;28;45359;-72
2022/07/24 11:10:53;;;;;;;;;7.00;7.00;;;;;28.11;38.62;101305.00;4974470;28;45460;-74
2022/07/24 11:13:31;;;;;;;;;7.00;7.00;;;;;28.18;38.54;101306.06;4974221;28;45395;-70
2022/07/24 11:16:11;;;;;;;;;7.50;7.50;;;;;28.22;38.36;101301.94;4974402;28;45385;-68
2022/07/24 11:19:02;;;;;;;;;9.00;9.00;;;;;28.26;39.19;101298.81;4974402;28;45632;-71
2022/07/24 11:21:40;;;;;;;;;7.00;7.00;;;;;28.34;38.49;101298.81;4954861;28;47922;-72
2022/07/24 11:24:21;;;;;;;;;10.25;7.50;;;;;28.43;38.03;101297.78;4956790;28;45340;-71
2022/07/24 11:26:46;;;;;;;;;7.00;6.00;;;;;28.53;37.78;101295.72;4956892;28;45357;-71
2022/07/24 11:29:26;;;;;;;;;8.75;8.00;;;;;28.57;37.43;101289.69;4956805;28;47176;-72
2022/07/24 11:31:58;;;;;;;;;9.75;7.75;;;;;28.61;36.30;101284.69;4956794;28;48463;-70
2022/07/24 11:34:25;;;;;;;;;12.00;9.00;;;;;28.68;37.30;101291.22;4974299;28;45424;-71
2022/07/24 11:36:53;;;;;;;;;6.75;6.25;;;;;28.73;36.90;101283.28;4957651;28;45364;-69
2022/07/24 11:39:25;;;;;;;;;10.75;8.50;;;;;28.75;36.34;101281.19;4957528;28;45407;-70
2022/07/24 11:41:53;;;;;;;;;9.25;9.00;;;;;28.82;36.31;101275.91;4956540;28;46215;-72
2022/07/24 11:44:40;;;;;;;;;9.75;8.50;;;;;28.80;36.18;101267.78;4974169;28;45247;-71
2022/07/24 11:47:24;;;;;;;;;11.50;10.50;;;;;28.86;36.12;101263.44;4956785;28;45430;-72
2022/07/24 11:49:52;;;;;;;;;5.75;5.75;;;;;28.96;35.31;101269.63;4959706;28;45346;-70
2022/07/24 11:52:22;;;;;;;;;6.75;6.75;;;;;29.04;36.03;101268.75;4961978;28;48258;-69
2022/07/24 11:54:50;;;;;;;;;6.75;6.50;;;;;29.11;35.48;101264.22;4979013;28;45269;-69
2022/07/24 11:57:21;;;;;;;;;6.75;6.75;;;;;29.18;34.72;101262.47;4960065;28;45387;-69
2022/07/24 11:59:48;;;;;;;;;8.00;6.25;;;;;29.22;34.18;101259.19;4959877;28;46741;-69
2022/07/24 12:02:15;;;;;;;;;9.00;8.00;;;;;29.29;34.32;101245.50;4959648;28;47584;-69
2022/07/24 12:04:41;;;;;;;;;9.75;7.25;;;;;29.40;34.73;101245.16;4959917;28;45446;-69
2022/07/24 12:07:11;;;;;;;;;8.75;8.75;;;;;29.46;33.50;101238.03;4959714;28;45339;-71
2022/07/24 12:09:48;;;;;;;;;10.75;10.75;;;;;29.49;34.20;101223.88;4959722;28;46026;-73
2022/07/24 12:12:20;;;;;;;;;11.25;7.50;;;;;29.60;34.35;101240.03;4977462;28;45575;-71
2022/07/24 12:14:46;;;;;;;;;6.00;6.00;;;;;29.54;34.82;101225.03;4959229;28;45521;-72
2022/07/24 12:17:11;;;;;;;;;7.75;7.50;;;;;29.57;34.84;101219.16;4956355;28;45476;-72
2022/07/24 12:19:37;;;;;;;;;9.25;9.25;;;;;29.62;35.50;101221.34;4954221;28;45430;-70
2022/07/24 12:22:02;;;;;;;;;12.00;8.75;;;;;29.59;34.75;101217.06;4958021;28;47050;-72
2022/07/24 12:24:31;;;;;;;;;6.00;5.00;;;;;29.61;34.68;101205.81;4959192;28;45746;-71
2022/07/24 12:26:59;;;;;;;;;8.50;7.50;;;;;29.68;35.49;101212.34;4959578;28;45281;-71
2022/07/24 12:29:26;;;;;;;;;6.75;6.75;;;;;29.78;34.72;101210.19;4959192;28;46261;-72
2022/07/24 12:32:13;;;;;;;;;8.00;7.25;;;;;29.92;34.13;101206.66;4959211;28;48257;-70
2022/07/24 12:34:43;;;;;;;;;10.00;7.50;;;;;29.95;33.09;101198.00;4959262;28;45954;-69
2022/07/24 12:37:16;;;;;;;;;9.50;8.25;;;;;30.05;34.05;101195.84;4959304;28;45347;-70
2022/07/24 12:39:52;;;;;;;;;10.00;8.75;;;;;30.03;33.67;101173.03;4958837;28;46135;-73
2022/07/24 12:42:31;;;;;;;;;9.50;8.25;;;;;30.16;34.59;101188.16;4976731;28;45446;-70
2022/07/24 12:45:07;;;;;;;;;8.00;8.00;;;;;30.16;33.60;101183.47;4976813;28;45467;-70
2022/07/24 12:47:33;;;;;;;;;7.00;7.00;;;;;30.25;34.13;101181.50;4959245;28;45354;-68
2022/07/24 12:50:11;;;;;;;;;8.75;8.50;;;;;30.23;34.45;101161.44;4959021;28;45318;-70
2022/07/24 12:52:38;;;;;;;;;9.00;8.00;;;;;30.43;32.82;101169.03;4976419;28;46857;-75
2022/07/24 12:55:03;;;;;;;;;5.00;5.00;;;;;30.56;33.83;101171.16;4976314;28;45686;-71
2022/07/24 12:57:29;;;;;;;;;7.50;7.50;;;;;30.71;33.34;101169.25;4958974;28;45517;-71
2022/07/24 13:00:01;;;;;;;;;8.00;8.00;;;;;30.81;31.84;101178.13;4976473;28;45535;-72
2022/07/24 13:02:27;;;;;;;;;9.50;8.50;;;;;30.91;32.47;101174.19;4958576;28;48423;-73
2022/07/24 13:04:56;;;;;;;;;9.75;6.25;;;;;30.97;32.34;101165.97;4958975;28;45372;-70
2022/07/24 13:07:24;;;;;;;;;6.25;6.25;;;;;30.92;32.71;101148.22;4976851;28;45226;-71
2022/07/24 13:09:51;;;;;;;;;10.25;10.25;;;;;30.95;33.06;101154.25;4958827;28;47458;-72
2022/07/24 13:12:17;;;;;;;;;7.25;7.25;;;;;30.96;32.31;101155.13;4957267;28;46139;-72
2022/07/24 13:14:43;;;;;;;;;7.50;7.50;;;;;31.00;32.93;101146.22;4971531;28;45449;-71
2022/07/24 13:17:18;;;;;;;;;4.00;4.00;;;;;31.03;32.62;101142.22;4974773;28;45507;-73
2022/07/24 13:19:49;;;;;;;;;8.50;8.25;;;;;31.13;33.10;101135.34;4976548;28;45546;-72
2022/07/24 13:22:15;;;;;;;;;10.25;7.75;;;;;31.23;32.92;101135.00;4974655;28;45440;-71
2022/07/24 13:24:41;;;;;;;;;11.00;9.50;;;;;31.26;31.85;101131.00;4957797;28;45455;-71
2022/07/24 13:27:08;;;;;;;;;8.50;8.00;;;;;31.15;33.62;101129.59;4976033;28;45551;-71
2022/07/24 13:29:34;;;;;;;;;7.25;6.00;;;;;31.19;32.98;101117.94;4957988;28;47328;-71
2022/07/24 13:32:00;;;;;;;;;7.25;7.25;;;;;31.31;33.24;101125.72;4975766;28;45397;-72
2022/07/24 13:34:26;;;;;;;;;8.25;8.25;;;;;31.40;32.97;101116.22;4975954;28;45298;-71
2022/07/24 13:36:52;;;;;;;;;8.75;8.00;;;;;31.45;31.91;101105.44;4958402;28;45316;-71
2022/07/24 13:39:18;;;;;;;;;12.25;8.00;;;;;31.42;32.73;101103.91;4975512;28;45567;-72
2022/07/24 13:41:43;;;;;;;;;7.75;7.00;;;;;31.49;31.95;101113.13;4957935;28;46542;-72
2022/07/24 13:44:09;;;;;;;;;8.50;8.50;;;;;31.57;32.66;101106.59;4975556;28;45270;-76
2022/07/24 13:46:34;;;;;;;;;8.00;7.00;;;;;31.68;32.08;101097.78;4976101;28;45637;-73
2022/07/24 13:49:01;;;;;;;;;8.00;7.00;;;;;31.67;31.16;101075.81;4957992;28;45533;-71
2022/07/24 13:51:27;;;;;;;;;5.75;5.75;;;;;31.82;30.35;101099.59;4975789;28;46095;-73
2022/07/24 13:53:53;;;;;;;;;9.25;7.00;;;;;31.87;30.74;101094.34;4975531;28;45465;-73
2022/07/24 13:56:19;;;;;;;;;6.00;6.00;;;;;31.95;30.65;101094.19;4975621;28;45372;-74
2022/07/24 13:58:45;;;;;;;;;7.75;7.00;;;;;32.05;30.95;101087.44;4975249;28;45558;-74
2022/07/24 14:01:12;;;;;;;;;10.00;9.75;;;;;31.99;30.81;101072.44;4975761;28;46110;-73
2022/07/24 14:03:39;;;;;;;;;7.00;7.00;;;;;32.15;31.05;101086.03;4957572;28;45336;-72
2022/07/24 14:06:05;;;;;;;;;8.25;6.25;;;;;32.29;31.00;101081.44;4975489;28;45310;-74
2022/07/24 14:08:30;;;;;;;;;8.75;8.00;;;;;32.32;30.61;101044.97;4974627;28;45356;-72
2022/07/24 14:10:55;;;;;;;;;14.00;11.50;;;;;32.54;30.80;101049.34;4974115;28;46076;-72
2022/07/24 14:13:21;;;;;;;;;8.00;8.00;;;;;32.72;30.23;101059.06;4973662;28;45365;-72
2022/07/24 14:15:46;;;;;;;;;9.00;9.00;;;;;32.79;30.35;101048.81;4978393;28;45373;-71
2022/07/24 14:18:12;;;;;;;;;7.50;7.25;;;;;32.92;29.30;101055.28;4974428;28;45294;-72
2022/07/24 14:20:39;;;;;;;;;9.75;8.00;;;;;32.99;30.09;101045.06;4975080;28;45395;-72
2022/07/24 14:23:04;;;;;;;;;8.25;8.00;;;;;32.87;30.64;101043.94;4973499;28;45273;-74
2022/07/24 14:25:29;;;;;;;;;9.75;8.00;;;;;32.88;30.56;101031.78;4974998;28;45259;-73
2022/07/24 14:27:56;;;;;;;;;8.50;7.00;;;;;32.84;29.73;101022.13;4974720;28;45318;-72
2022/07/24 14:30:22;;;;;;;;;6.50;6.50;;;;;32.89;29.67;101027.06;4957262;28;47558;-71
2022/07/24 14:32:47;;;;;;;;;6.00;6.00;;;;;32.98;30.23;101025.81;4974844;28;45206;-73
2022/07/24 14:35:12;;;;;;;;;9.00;7.50;;;;;33.05;29.00;101016.44;4975465;28;45302;-72
2022/07/24 14:37:38;;;;;;;;;6.75;6.75;;;;;33.16;29.59;101011.31;4957573;28;46192;-71
2022/07/24 14:40:06;;;;;;;;;6.00;6.00;;;;;33.32;29.76;101022.94;4971970;28;46105;-72
2022/07/24 14:42:32;;;;;;;;;8.50;8.50;;;;;33.45;28.73;101008.16;4971838;28;45422;-72
2022/07/24 14:44:57;;;;;;;;;7.50;7.00;;;;;33.44;30.31;101012.88;4975168;28;45384;-72
2022/07/24 14:47:23;;;;;;;;;5.75;5.50;;;;;33.52;29.98;101009.00;4974214;28;45483;-72
2022/07/24 14:49:49;;;;;;;;;7.75;7.75;;;;;33.55;29.01;101003.03;4974353;28;46103;-73
2022/07/24 14:52:17;;;;;;;;;7.50;6.75;;;;;33.72;28.57;101004.31;4970418;28;45477;-74
2022/07/24 14:54:43;;;;;;;;;8.00;7.50;;;;;33.68;28.30;100985.50;4962232;28;45719;-72
2022/07/24 14:57:09;;;;;;;;;6.75;6.75;;;;;33.79;28.04;100994.06;4970263;28;45353;-73
2022/07/24 14:59:34;;;;;;;;;6.50;5.25;;;;;33.90;28.70;101014.81;4972434;28;46045;-73
2022/07/24 15:01:59;;;;;;;;;6.50;5.75;;;;;33.96;28.15;100997.25;4974189;28;45424;-75
2022/07/24 15:04:25;;;;;;;;;9.00;8.00;;;;;34.01;28.94;100994.69;4968758;28;46358;-73
2022/07/24 15:06:50;;;;;;;;;8.00;8.00;;;;;34.10;29.57;100986.94;4974696;28;45195;-72
2022/07/24 15:09:15;;;;;;;;;9.75;7.00;;;;;34.15;29.07;100985.22;4974365;28;46299;-72
2022/07/24 15:11:41;;;;;;;;;11.00;10.00;;;;;34.20;28.78;100976.19;4970289;28;45537;-72
2022/07/24 15:14:06;;;;;;;;;8.25;7.00;;;;;34.28;28.35;100977.94;4973121;28;45368;-72
2022/07/24 15:16:32;;;;;;;;;6.00;6.00;;;;;34.34;27.43;100975.13;4970571;28;45602;-76
2022/07/24 15:18:57;;;;;;;;;7.50;6.50;;;;;34.40;27.09;100976.16;4970682;28;46335;-73
2022/07/24 15:21:22;;;;;;;;;7.00;6.25;;;;;34.40;27.74;100970.59;4971327;28;45417;-73
2022/07/24 15:23:48;;;;;;;;;7.00;5.50;;;;;34.49;27.89;100961.75;4953514;28;45497;-73
2022/07/24 15:26:13;;;;;;;;;7.00;7.00;;;;;34.49;27.87;100972.91;4977955;28;45607;-73
2022/07/24 15:28:38;;;;;;;;;10.50;8.50;;;;;34.49;28.49;100958.13;4960268;28;48237;-73
2022/07/24 15:31:04;;;;;;;;;10.00;6.50;;;;;34.57;27.11;100954.22;4969598;28;45397;-73
2022/07/24 15:33:29;;;;;;;;;8.00;8.00;;;;;34.61;26.56;100961.06;4977852;28;45266;-72
2022/07/24 15:35:54;;;;;;;;;7.00;7.00;;;;;34.60;27.49;100957.44;4977966;28;45633;-72
2022/07/24 15:38:20;;;;;;;;;7.50;7.50;;;;;34.62;27.30;100949.72;4977639;28;46098;-73
2022/07/24 15:40:46;;;;;;;;;7.25;7.25;;;;;34.59;29.06;100930.66;4959907;28;45417;-73
2022/07/24 15:43:11;;;;;;;;;9.25;8.00;;;;;34.44;27.88;100947.66;4977211;28;45558;-73
2022/07/24 15:45:38;;;;;;;;;8.00;7.00;;;;;34.39;26.98;100939.09;4977490;28;45550;-72
2022/07/24 15:48:04;;;;;;;;;5.25;5.25;;;;;34.38;28.10;100922.63;4967244;28;48038;-73
2022/07/24 15:50:30;;;;;;;;;10.00;6.75;;;;;34.38;28.06;100934.59;4966580;28;45530;-73
2022/07/24 15:52:55;;;;;;;;;7.00;7.00;;;;;34.52;27.22;100939.06;4971512;28;45449;-73